マガダン の空港の天気 - METARとTAF

マガダン・ソコル空港 ( UHMM / GDX ) - ロシア マガダン
飛行場実況気象(Metar)
観測時間02/18 01:00 MAGT (02/17 14:00 UTC)
風向・風速静穏 0m/s
視程10km以上
天気現象
少しの雲 雲底高度 1220m
気温-21℃
湿度77%
気圧994hPa
METARUHMM 171400Z 00000MPS 9999 FEW040 M21/M24 Q0994 RMK QFE731
過去の天気等 Google飛行場航空写真 Wunderground天気予報

過去48時間のMETAR

飛行場予報(TAF)
発表時間: 2/18 00:45 MAGT (2/17 13:45 UTC)
予報対象時間: 18日2時 MAGT ~ 19日8時 MAGT
風向・風速北 3m/s 瞬間風速 8m/s
視程10km以上
全天の4割程度の雲 雲底高度 1220m
全天を覆う雲 雲底高度 2130m
18日2時 MAGT ~ 18日13時 MAGT に一時的に
風向・風速東 3m/s
視程5000m
天気現象弱い雪
全天の8割程度の雲 雲底高度 610m
全天を覆う雲 雲底高度 2130m
18日13時 MAGT ~ 18日21時 MAGT に一時的に
風向・風速西北西 3m/s
TAF UHMM 171345Z 1715/1821 35003G08MPS 9999 SCT040 OVC070
TEMPO 1715/1802 09003MPS 5000 -SN BKN020 OVC070
TEMPO 1802/1810 30003MPS